sensor_id;sensor_type;location;lat;lon;timestamp;P1;durP1;ratioP1;P2;durP2;ratioP2
23590;SDS011;11973;52.098;7.582;2023-09-19T04:16:02;5.05;;;2.17;;
23590;SDS011;11973;52.098;7.582;2023-09-19T04:18:36;12.05;;;2.58;;
23590;SDS011;11973;52.098;7.582;2023-09-19T04:21:04;4.65;;;2.15;;
23590;SDS011;11973;52.098;7.582;2023-09-19T04:23:31;11.32;;;2.30;;
23590;SDS011;11973;52.098;7.582;2023-09-19T04:25:58;7.57;;;1.90;;
23590;SDS011;11973;52.098;7.582;2023-09-19T04:28:23;9.75;;;2.15;;
23590;SDS011;11973;52.098;7.582;2023-09-19T04:30:49;8.20;;;2.00;;
23590;SDS011;11973;52.098;7.582;2023-09-19T04:33:15;6.00;;;1.58;;
23590;SDS011;11973;52.098;7.582;2023-09-19T04:35:41;4.78;;;1.98;;
23590;SDS011;11973;52.098;7.582;2023-09-19T04:38:10;6.20;;;2.00;;
23590;SDS011;11973;52.098;7.582;2023-09-19T04:40:36;4.70;;;1.70;;
23590;SDS011;11973;52.098;7.582;2023-09-19T04:43:04;5.15;;;1.90;;
23590;SDS011;11973;52.098;7.582;2023-09-19T04:45:31;6.40;;;2.00;;
23590;SDS011;11973;52.098;7.582;2023-09-19T04:47:56;5.70;;;2.15;;
23590;SDS011;11973;52.098;7.582;2023-09-19T04:50:22;7.05;;;2.28;;
23590;SDS011;11973;52.098;7.582;2023-09-19T04:52:49;3.72;;;2.05;;
23590;SDS011;11973;52.098;7.582;2023-09-19T04:55:16;5.13;;;1.90;;
23590;SDS011;11973;52.098;7.582;2023-09-19T04:57:43;2.95;;;1.67;;
23590;SDS011;11973;52.098;7.582;2023-09-19T05:00:13;7.38;;;2.03;;
23590;SDS011;11973;52.098;7.582;2023-09-19T05:02:41;5.55;;;1.88;;
23590;SDS011;11973;52.098;7.582;2023-09-19T05:05:08;8.73;;;2.03;;
23590;SDS011;11973;52.098;7.582;2023-09-19T05:07:40;11.85;;;2.45;;
23590;SDS011;11973;52.098;7.582;2023-09-19T05:10:06;4.90;;;1.80;;
23590;SDS011;11973;52.098;7.582;2023-09-19T05:12:33;3.22;;;1.50;;
23590;SDS011;11973;52.098;7.582;2023-09-19T05:15:01;4.88;;;1.63;;
23590;SDS011;11973;52.098;7.582;2023-09-19T05:17:33;7.63;;;2.28;;
23590;SDS011;11973;52.098;7.582;2023-09-19T05:20:00;6.68;;;1.83;;
23590;SDS011;11973;52.098;7.582;2023-09-19T05:22:31;4.13;;;1.92;;
23590;SDS011;11973;52.098;7.582;2023-09-19T05:24:57;4.68;;;2.03;;
23590;SDS011;11973;52.098;7.582;2023-09-19T05:27:23;6.43;;;1.77;;
23590;SDS011;11973;52.098;7.582;2023-09-19T05:29:49;3.60;;;1.48;;
23590;SDS011;11973;52.098;7.582;2023-09-19T05:32:18;6.07;;;1.75;;
23590;SDS011;11973;52.098;7.582;2023-09-19T05:34:45;4.53;;;1.50;;
23590;SDS011;11973;52.098;7.582;2023-09-19T05:37:12;4.10;;;1.55;;
23590;SDS011;11973;52.098;7.582;2023-09-19T05:39:42;6.57;;;1.92;;
23590;SDS011;11973;52.098;7.582;2023-09-19T05:42:08;7.50;;;1.90;;
23590;SDS011;11973;52.098;7.582;2023-09-19T05:44:34;6.47;;;1.80;;
23590;SDS011;11973;52.098;7.582;2023-09-19T05:47:01;4.30;;;1.45;;
23590;SDS011;11973;52.098;7.582;2023-09-19T05:49:28;6.35;;;1.98;;
23590;SDS011;11973;52.098;7.582;2023-09-19T05:51:53;6.70;;;1.85;;
23590;SDS011;11973;52.098;7.582;2023-09-19T05:54:21;2.67;;;1.38;;
23590;SDS011;11973;52.098;7.582;2023-09-19T05:56:47;6.15;;;1.55;;
23590;SDS011;11973;52.098;7.582;2023-09-19T05:59:14;4.13;;;1.40;;
23590;SDS011;11973;52.098;7.582;2023-09-19T06:01:41;3.40;;;1.45;;
23590;SDS011;11973;52.098;7.582;2023-09-19T06:04:08;2.25;;;1.10;;
23590;SDS011;11973;52.098;7.582;2023-09-19T06:06:33;3.83;;;1.60;;
23590;SDS011;11973;52.098;7.582;2023-09-19T06:09:05;5.60;;;1.58;;
23590;SDS011;11973;52.098;7.582;2023-09-19T06:11:33;5.43;;;1.40;;
23590;SDS011;11973;52.098;7.582;2023-09-19T06:14:03;2.25;;;1.20;;
23590;SDS011;11973;52.098;7.582;2023-09-19T06:16:30;2.72;;;1.50;;
23590;SDS011;11973;52.098;7.582;2023-09-19T06:18:57;6.28;;;1.60;;
23590;SDS011;11973;52.098;7.582;2023-09-19T06:21:25;5.50;;;1.40;;
23590;SDS011;11973;52.098;7.582;2023-09-19T06:23:52;3.25;;;1.25;;
23590;SDS011;11973;52.098;7.582;2023-09-19T06:26:23;2.45;;;1.40;;
23590;SDS011;11973;52.098;7.582;2023-09-19T06:28:48;4.63;;;1.30;;
23590;SDS011;11973;52.098;7.582;2023-09-19T06:31:14;4.78;;;1.50;;
23590;SDS011;11973;52.098;7.582;2023-09-19T06:33:40;6.65;;;1.60;;
23590;SDS011;11973;52.098;7.582;2023-09-19T06:36:06;1.75;;;1.65;;
23590;SDS011;11973;52.098;7.582;2023-09-19T06:38:32;3.65;;;1.40;;
23590;SDS011;11973;52.098;7.582;2023-09-19T06:41:02;7.47;;;1.73;;
23590;SDS011;11973;52.098;7.582;2023-09-19T06:43:32;4.45;;;1.75;;
23590;SDS011;11973;52.098;7.582;2023-09-19T06:45:59;5.20;;;1.70;;
23590;SDS011;11973;52.098;7.582;2023-09-19T06:48:25;6.28;;;2.10;;
23590;SDS011;11973;52.098;7.582;2023-09-19T06:50:55;1.58;;;1.13;;
23590;SDS011;11973;52.098;7.582;2023-09-19T06:53:21;3.53;;;1.55;;
23590;SDS011;11973;52.098;7.582;2023-09-19T06:55:49;6.03;;;1.30;;
23590;SDS011;11973;52.098;7.582;2023-09-19T06:58:19;1.42;;;1.35;;
23590;SDS011;11973;52.098;7.582;2023-09-19T07:00:45;3.50;;;1.40;;
23590;SDS011;11973;52.098;7.582;2023-09-19T07:03:13;2.45;;;1.40;;
23590;SDS011;11973;52.098;7.582;2023-09-19T07:05:40;2.22;;;1.55;;
23590;SDS011;11973;52.098;7.582;2023-09-19T07:08:06;3.58;;;1.63;;
23590;SDS011;11973;52.098;7.582;2023-09-19T07:10:34;2.83;;;1.73;;
23590;SDS011;11973;52.098;7.582;2023-09-19T07:13:01;4.03;;;1.80;;
23590;SDS011;11973;52.098;7.582;2023-09-19T07:15:27;7.50;;;2.00;;
23590;SDS011;11973;52.098;7.582;2023-09-19T07:17:55;5.13;;;1.40;;
23590;SDS011;11973;52.098;7.582;2023-09-19T07:20:22;6.82;;;1.85;;
23590;SDS011;11973;52.098;7.582;2023-09-19T07:22:51;5.80;;;1.48;;
23590;SDS011;11973;52.098;7.582;2023-09-19T07:25:17;3.28;;;1.42;;
23590;SDS011;11973;52.098;7.582;2023-09-19T07:27:43;4.00;;;1.70;;
23590;SDS011;11973;52.098;7.582;2023-09-19T07:30:10;3.33;;;1.63;;
23590;SDS011;11973;52.098;7.582;2023-09-19T07:32:37;1.73;;;1.55;;
23590;SDS011;11973;52.098;7.582;2023-09-19T07:35:03;3.83;;;1.65;;
23590;SDS011;11973;52.098;7.582;2023-09-19T07:37:33;4.85;;;1.75;;
23590;SDS011;11973;52.098;7.582;2023-09-19T07:40:00;2.75;;;1.45;;
23590;SDS011;11973;52.098;7.582;2023-09-19T07:42:35;5.03;;;1.50;;
23590;SDS011;11973;52.098;7.582;2023-09-19T07:45:06;4.13;;;1.92;;
23590;SDS011;11973;52.098;7.582;2023-09-19T07:47:33;4.00;;;1.73;;
23590;SDS011;11973;52.098;7.582;2023-09-19T07:49:59;3.08;;;1.83;;
23590;SDS011;11973;52.098;7.582;2023-09-19T07:52:28;2.83;;;1.20;;
23590;SDS011;11973;52.098;7.582;2023-09-19T07:54:54;2.30;;;1.48;;
23590;SDS011;11973;52.098;7.582;2023-09-19T07:57:22;4.40;;;1.52;;
23590;SDS011;11973;52.098;7.582;2023-09-19T07:59:48;4.20;;;1.70;;
23590;SDS011;11973;52.098;7.582;2023-09-19T08:02:13;1.92;;;1.60;;
23590;SDS011;11973;52.098;7.582;2023-09-19T08:04:43;3.63;;;0.90;;
23590;SDS011;11973;52.098;7.582;2023-09-19T08:07:11;2.50;;;1.60;;
23590;SDS011;11973;52.098;7.582;2023-09-19T08:09:38;6.03;;;1.48;;
23590;SDS011;11973;52.098;7.582;2023-09-19T08:12:05;5.00;;;2.05;;
23590;SDS011;11973;52.098;7.582;2023-09-19T08:14:32;5.95;;;2.17;;
23590;SDS011;11973;52.098;7.582;2023-09-19T08:16:58;4.82;;;1.50;;
23590;SDS011;11973;52.098;7.582;2023-09-19T08:19:25;6.43;;;1.77;;
23590;SDS011;11973;52.098;7.582;2023-09-19T08:21:56;6.85;;;1.60;;
23590;SDS011;11973;52.098;7.582;2023-09-19T08:24:24;4.32;;;1.50;;
23590;SDS011;11973;52.098;7.582;2023-09-19T08:26:57;5.72;;;1.60;;
23590;SDS011;11973;52.098;7.582;2023-09-19T08:29:23;5.53;;;1.60;;
23590;SDS011;11973;52.098;7.582;2023-09-19T08:31:53;6.15;;;1.40;;
23590;SDS011;11973;52.098;7.582;2023-09-19T08:34:21;5.25;;;1.60;;
23590;SDS011;11973;52.098;7.582;2023-09-19T08:36:49;5.63;;;1.80;;
23590;SDS011;11973;52.098;7.582;2023-09-19T08:39:17;5.25;;;1.80;;
23590;SDS011;11973;52.098;7.582;2023-09-19T08:41:44;4.40;;;2.08;;
23590;SDS011;11973;52.098;7.582;2023-09-19T08:44:10;7.60;;;2.03;;
23590;SDS011;11973;52.098;7.582;2023-09-19T08:46:36;8.18;;;1.90;;
23590;SDS011;11973;52.098;7.582;2023-09-19T08:52:20;4.15;;;1.73;;
23590;SDS011;11973;52.098;7.582;2023-09-19T08:54:48;7.18;;;1.85;;
23590;SDS011;11973;52.098;7.582;2023-09-19T08:57:20;5.63;;;1.52;;
23590;SDS011;11973;52.098;7.582;2023-09-19T08:59:50;3.80;;;1.60;;
23590;SDS011;11973;52.098;7.582;2023-09-19T09:02:16;3.95;;;2.03;;
23590;SDS011;11973;52.098;7.582;2023-09-19T09:04:44;4.18;;;1.90;;
23590;SDS011;11973;52.098;7.582;2023-09-19T09:07:11;5.70;;;1.95;;
23590;SDS011;11973;52.098;7.582;2023-09-19T09:09:38;5.05;;;2.15;;
23590;SDS011;11973;52.098;7.582;2023-09-19T09:12:08;4.63;;;1.98;;
23590;SDS011;11973;52.098;7.582;2023-09-19T09:14:45;4.85;;;1.70;;
23590;SDS011;11973;52.098;7.582;2023-09-19T09:17:13;3.47;;;1.70;;
23590;SDS011;11973;52.098;7.582;2023-09-19T09:19:40;7.63;;;1.50;;
23590;SDS011;11973;52.098;7.582;2023-09-19T09:22:11;3.38;;;1.83;;
23590;SDS011;11973;52.098;7.582;2023-09-19T09:24:37;3.45;;;1.77;;
23590;SDS011;11973;52.098;7.582;2023-09-19T09:27:16;6.47;;;2.28;;
23590;SDS011;11973;52.098;7.582;2023-09-19T09:29:47;3.67;;;1.52;;
23590;SDS011;11973;52.098;7.582;2023-09-19T09:32:20;5.75;;;1.67;;
23590;SDS011;11973;52.098;7.582;2023-09-19T09:34:50;3.40;;;1.70;;
23590;SDS011;11973;52.098;7.582;2023-09-19T09:37:18;4.72;;;1.38;;
23590;SDS011;11973;52.098;7.582;2023-09-19T09:42:35;6.95;;;1.40;;
23590;SDS011;11973;52.098;7.582;2023-09-19T09:47:58;4.00;;;1.55;;
23590;SDS011;11973;52.098;7.582;2023-09-19T09:50:34;4.18;;;1.70;;
23590;SDS011;11973;52.098;7.582;2023-09-19T09:53:28;3.75;;;1.30;;
23590;SDS011;11973;52.098;7.582;2023-09-19T09:55:59;4.15;;;1.70;;
23590;SDS011;11973;52.098;7.582;2023-09-19T09:58:53;5.50;;;1.75;;
23590;SDS011;11973;52.098;7.582;2023-09-19T10:01:21;2.58;;;1.45;;
23590;SDS011;11973;52.098;7.582;2023-09-19T10:03:52;2.95;;;1.42;;
23590;SDS011;11973;52.098;7.582;2023-09-19T10:06:23;6.47;;;1.85;;
23590;SDS011;11973;52.098;7.582;2023-09-19T10:08:58;6.63;;;2.22;;
23590;SDS011;11973;52.098;7.582;2023-09-19T10:11:30;3.67;;;1.67;;
23590;SDS011;11973;52.098;7.582;2023-09-19T10:13:57;2.90;;;1.48;;
23590;SDS011;11973;52.098;7.582;2023-09-19T10:16:29;7.40;;;2.08;;
23590;SDS011;11973;52.098;7.582;2023-09-19T10:18:57;7.32;;;2.13;;
23590;SDS011;11973;52.098;7.582;2023-09-19T10:21:27;2.38;;;1.52;;
23590;SDS011;11973;52.098;7.582;2023-09-19T10:23:56;4.38;;;1.98;;
23590;SDS011;11973;52.098;7.582;2023-09-19T10:26:27;5.93;;;2.20;;
23590;SDS011;11973;52.098;7.582;2023-09-19T10:28:56;4.78;;;1.75;;
23590;SDS011;11973;52.098;7.582;2023-09-19T10:31:26;3.47;;;1.60;;
23590;SDS011;11973;52.098;7.582;2023-09-19T10:33:53;3.55;;;1.60;;
23590;SDS011;11973;52.098;7.582;2023-09-19T10:36:21;4.35;;;1.77;;
23590;SDS011;11973;52.098;7.582;2023-09-19T10:38:52;2.63;;;1.58;;
23590;SDS011;11973;52.098;7.582;2023-09-19T10:41:22;7.05;;;1.80;;
23590;SDS011;11973;52.098;7.582;2023-09-19T10:43:50;7.05;;;1.65;;
23590;SDS011;11973;52.098;7.582;2023-09-19T10:46:19;7.05;;;1.63;;
23590;SDS011;11973;52.098;7.582;2023-09-19T10:48:45;2.92;;;1.33;;
23590;SDS011;11973;52.098;7.582;2023-09-19T10:51:18;1.77;;;1.50;;
23590;SDS011;11973;52.098;7.582;2023-09-19T10:56:40;1.80;;;1.30;;
23590;SDS011;11973;52.098;7.582;2023-09-19T10:59:13;1.75;;;1.33;;
23590;SDS011;11973;52.098;7.582;2023-09-19T11:01:42;7.53;;;1.83;;
23590;SDS011;11973;52.098;7.582;2023-09-19T11:04:31;8.23;;;1.70;;
23590;SDS011;11973;52.098;7.582;2023-09-19T11:07:05;4.97;;;1.83;;
23590;SDS011;11973;52.098;7.582;2023-09-19T11:14:58;4.30;;;1.60;;
23590;SDS011;11973;52.098;7.582;2023-09-19T11:17:30;4.38;;;2.00;;
23590;SDS011;11973;52.098;7.582;2023-09-19T11:26:00;6.20;;;1.80;;
23590;SDS011;11973;52.098;7.582;2023-09-19T11:30:43;3.22;;;1.27;;
23590;SDS011;11973;52.098;7.582;2023-09-19T11:33:30;5.05;;;1.50;;
23590;SDS011;11973;52.098;7.582;2023-09-19T11:43:50;3.03;;;1.33;;
23590;SDS011;11973;52.098;7.582;2023-09-19T11:46:51;6.80;;;1.90;;
23590;SDS011;11973;52.098;7.582;2023-09-19T11:49:18;4.22;;;1.95;;
23590;SDS011;11973;52.098;7.582;2023-09-19T11:51:51;1.60;;;1.50;;
23590;SDS011;11973;52.098;7.582;2023-09-19T11:54:17;5.10;;;1.55;;
23590;SDS011;11973;52.098;7.582;2023-09-19T11:56:44;2.67;;;1.38;;
23590;SDS011;11973;52.098;7.582;2023-09-19T11:59:19;3.73;;;1.50;;
23590;SDS011;11973;52.098;7.582;2023-09-19T12:01:51;2.42;;;1.00;;
23590;SDS011;11973;52.098;7.582;2023-09-19T12:04:41;3.95;;;1.30;;
23590;SDS011;11973;52.098;7.582;2023-09-19T12:07:14;2.45;;;0.95;;
23590;SDS011;11973;52.098;7.582;2023-09-19T12:09:47;2.40;;;1.25;;
23590;SDS011;11973;52.098;7.582;2023-09-19T12:12:22;2.40;;;1.40;;
23590;SDS011;11973;52.098;7.582;2023-09-19T12:14:51;3.72;;;1.13;;
23590;SDS011;11973;52.098;7.582;2023-09-19T12:17:18;4.53;;;1.42;;
23590;SDS011;11973;52.098;7.582;2023-09-19T12:19:51;3.75;;;1.45;;
23590;SDS011;11973;52.098;7.582;2023-09-19T12:22:17;2.83;;;1.20;;
23590;SDS011;11973;52.098;7.582;2023-09-19T12:24:45;2.40;;;1.05;;
23590;SDS011;11973;52.098;7.582;2023-09-19T12:27:11;3.25;;;1.02;;
23590;SDS011;11973;52.098;7.582;2023-09-19T12:29:45;5.10;;;1.30;;
23590;SDS011;11973;52.098;7.582;2023-09-19T12:32:16;1.85;;;1.20;;
23590;SDS011;11973;52.098;7.582;2023-09-19T12:34:50;4.45;;;1.25;;
23590;SDS011;11973;52.098;7.582;2023-09-19T12:37:17;1.85;;;1.10;;
23590;SDS011;11973;52.098;7.582;2023-09-19T12:39:48;4.15;;;1.35;;
23590;SDS011;11973;52.098;7.582;2023-09-19T12:42:16;1.20;;;1.10;;
23590;SDS011;11973;52.098;7.582;2023-09-19T12:44:48;4.78;;;1.48;;
23590;SDS011;11973;52.098;7.582;2023-09-19T12:47:20;4.15;;;1.10;;
23590;SDS011;11973;52.098;7.582;2023-09-19T12:50:05;1.38;;;0.95;;
23590;SDS011;11973;52.098;7.582;2023-09-19T12:52:47;1.65;;;0.82;;
23590;SDS011;11973;52.098;7.582;2023-09-19T12:55:34;5.35;;;1.45;;
23590;SDS011;11973;52.098;7.582;2023-09-19T13:00:36;0.95;;;0.90;;
23590;SDS011;11973;52.098;7.582;2023-09-19T13:03:15;3.05;;;1.10;;
23590;SDS011;11973;52.098;7.582;2023-09-19T13:06:02;3.85;;;0.80;;
23590;SDS011;11973;52.098;7.582;2023-09-19T13:08:32;4.18;;;1.23;;
23590;SDS011;11973;52.098;7.582;2023-09-19T13:13:38;7.38;;;1.50;;
23590;SDS011;11973;52.098;7.582;2023-09-19T13:16:06;3.90;;;1.30;;
23590;SDS011;11973;52.098;7.582;2023-09-19T13:18:41;2.47;;;0.90;;
23590;SDS011;11973;52.098;7.582;2023-09-19T13:21:10;3.33;;;1.13;;
23590;SDS011;11973;52.098;7.582;2023-09-19T13:23:52;2.55;;;0.98;;
23590;SDS011;11973;52.098;7.582;2023-09-19T13:26:25;2.90;;;1.48;;
23590;SDS011;11973;52.098;7.582;2023-09-19T13:28:56;3.20;;;1.38;;
23590;SDS011;11973;52.098;7.582;2023-09-19T13:31:22;3.22;;;1.40;;
23590;SDS011;11973;52.098;7.582;2023-09-19T13:33:49;2.50;;;1.27;;
23590;SDS011;11973;52.098;7.582;2023-09-19T13:36:15;3.17;;;1.33;;
23590;SDS011;11973;52.098;7.582;2023-09-19T13:38:43;2.53;;;1.40;;
23590;SDS011;11973;52.098;7.582;2023-09-19T13:41:09;1.85;;;1.10;;
23590;SDS011;11973;52.098;7.582;2023-09-19T13:43:36;1.60;;;1.50;;
23590;SDS011;11973;52.098;7.582;2023-09-19T13:46:04;4.93;;;1.23;;
23590;SDS011;11973;52.098;7.582;2023-09-19T13:48:32;1.75;;;1.63;;
23590;SDS011;11973;52.098;7.582;2023-09-19T13:51:01;2.70;;;1.00;;
23590;SDS011;11973;52.098;7.582;2023-09-19T13:53:28;2.67;;;1.35;;
23590;SDS011;11973;52.098;7.582;2023-09-19T13:55:54;1.50;;;1.25;;
23590;SDS011;11973;52.098;7.582;2023-09-19T13:58:20;3.42;;;0.90;;
23590;SDS011;11973;52.098;7.582;2023-09-19T14:00:48;3.50;;;1.20;;
23590;SDS011;11973;52.098;7.582;2023-09-19T14:03:14;4.15;;;1.30;;
23590;SDS011;11973;52.098;7.582;2023-09-19T14:05:41;3.03;;;1.40;;
23590;SDS011;11973;52.098;7.582;2023-09-19T14:08:07;2.35;;;1.10;;
23590;SDS011;11973;52.098;7.582;2023-09-19T14:10:33;2.33;;;0.90;;
23590;SDS011;11973;52.098;7.582;2023-09-19T14:13:00;2.75;;;1.13;;
23590;SDS011;11973;52.098;7.582;2023-09-19T14:15:29;1.98;;;1.02;;
23590;SDS011;11973;52.098;7.582;2023-09-19T14:17:58;2.65;;;1.35;;
23590;SDS011;11973;52.098;7.582;2023-09-19T14:20:25;4.53;;;1.33;;
23590;SDS011;11973;52.098;7.582;2023-09-19T14:22:54;2.28;;;1.08;;
23590;SDS011;11973;52.098;7.582;2023-09-19T14:25:20;3.05;;;1.20;;
23590;SDS011;11973;52.098;7.582;2023-09-19T14:27:47;1.42;;;0.90;;
23590;SDS011;11973;52.098;7.582;2023-09-19T14:30:13;2.13;;;0.90;;
23590;SDS011;11973;52.098;7.582;2023-09-19T14:32:39;1.42;;;0.70;;
23590;SDS011;11973;52.098;7.582;2023-09-19T14:35:06;1.02;;;1.00;;
23590;SDS011;11973;52.098;7.582;2023-09-19T14:37:32;4.15;;;0.88;;
23590;SDS011;11973;52.098;7.582;2023-09-19T14:39:58;2.35;;;0.85;;
23590;SDS011;11973;52.098;7.582;2023-09-19T14:42:24;0.98;;;0.88;;
23590;SDS011;11973;52.098;7.582;2023-09-19T14:44:49;2.58;;;0.98;;
23590;SDS011;11973;52.098;7.582;2023-09-19T14:47:15;1.35;;;0.90;;
23590;SDS011;11973;52.098;7.582;2023-09-19T14:49:42;0.85;;;0.85;;
23590;SDS011;11973;52.098;7.582;2023-09-19T14:52:08;1.65;;;0.65;;
23590;SDS011;11973;52.098;7.582;2023-09-19T14:54:36;3.30;;;0.88;;
23590;SDS011;11973;52.098;7.582;2023-09-19T14:57:03;1.27;;;0.90;;
23590;SDS011;11973;52.098;7.582;2023-09-19T14:59:32;1.33;;;0.60;;
23590;SDS011;11973;52.098;7.582;2023-09-19T15:02:02;1.50;;;0.63;;
23590;SDS011;11973;52.098;7.582;2023-09-19T15:04:29;2.90;;;0.80;;
23590;SDS011;11973;52.098;7.582;2023-09-19T15:06:54;1.65;;;0.60;;
23590;SDS011;11973;52.098;7.582;2023-09-19T15:09:21;1.00;;;0.70;;
23590;SDS011;11973;52.098;7.582;2023-09-19T15:11:51;1.10;;;0.65;;
23590;SDS011;11973;52.098;7.582;2023-09-19T15:14:18;3.50;;;0.70;;
23590;SDS011;11973;52.098;7.582;2023-09-19T15:16:44;1.45;;;0.60;;
23590;SDS011;11973;52.098;7.582;2023-09-19T15:19:09;1.40;;;0.70;;
23590;SDS011;11973;52.098;7.582;2023-09-19T15:21:36;3.35;;;0.70;;
23590;SDS011;11973;52.098;7.582;2023-09-19T15:24:05;1.90;;;0.70;;
23590;SDS011;11973;52.098;7.582;2023-09-19T15:26:34;1.27;;;0.60;;
23590;SDS011;11973;52.098;7.582;2023-09-19T15:29:05;0.65;;;0.65;;
23590;SDS011;11973;52.098;7.582;2023-09-19T15:31:31;5.35;;;0.65;;
23590;SDS011;11973;52.098;7.582;2023-09-19T15:33:57;1.25;;;0.70;;
23590;SDS011;11973;52.098;7.582;2023-09-19T15:36:23;1.33;;;0.60;;
23590;SDS011;11973;52.098;7.582;2023-09-19T15:38:56;1.95;;;0.60;;
23590;SDS011;11973;52.098;7.582;2023-09-19T15:41:35;0.85;;;0.77;;
23590;SDS011;11973;52.098;7.582;2023-09-19T15:44:04;0.52;;;0.52;;
23590;SDS011;11973;52.098;7.582;2023-09-19T15:46:36;1.00;;;0.50;;
23590;SDS011;11973;52.098;7.582;2023-09-19T15:49:02;0.90;;;0.52;;
23590;SDS011;11973;52.098;7.582;2023-09-19T15:51:28;0.88;;;0.60;;
23590;SDS011;11973;52.098;7.582;2023-09-19T15:53:55;0.95;;;0.30;;
23590;SDS011;11973;52.098;7.582;2023-09-19T15:56:22;0.88;;;0.60;;
23590;SDS011;11973;52.098;7.582;2023-09-19T15:58:50;5.35;;;0.57;;
23590;SDS011;11973;52.098;7.582;2023-09-19T16:01:17;2.35;;;0.55;;
23590;SDS011;11973;52.098;7.582;2023-09-19T16:03:48;2.42;;;0.50;;
23590;SDS011;11973;52.098;7.582;2023-09-19T16:06:16;0.50;;;0.50;;
23590;SDS011;11973;52.098;7.582;2023-09-19T16:08:47;0.55;;;0.55;;
23590;SDS011;11973;52.098;7.582;2023-09-19T16:11:13;2.45;;;0.65;;
23590;SDS011;11973;52.098;7.582;2023-09-19T16:13:40;2.92;;;0.50;;
23590;SDS011;11973;52.098;7.582;2023-09-19T16:16:07;0.93;;;0.40;;
23590;SDS011;11973;52.098;7.582;2023-09-19T16:18:37;0.95;;;0.60;;
23590;SDS011;11973;52.098;7.582;2023-09-19T16:21:04;0.50;;;0.50;;
23590;SDS011;11973;52.098;7.582;2023-09-19T16:23:33;0.95;;;0.63;;
23590;SDS011;11973;52.098;7.582;2023-09-19T16:26:08;1.70;;;0.40;;
23590;SDS011;11973;52.098;7.582;2023-09-19T16:28:37;3.03;;;0.70;;
23590;SDS011;11973;52.098;7.582;2023-09-19T16:31:03;0.55;;;0.55;;
23590;SDS011;11973;52.098;7.582;2023-09-19T16:33:33;0.52;;;0.52;;
23590;SDS011;11973;52.098;7.582;2023-09-19T16:36:01;0.50;;;0.50;;
23590;SDS011;11973;52.098;7.582;2023-09-19T16:38:32;1.55;;;0.63;;
23590;SDS011;11973;52.098;7.582;2023-09-19T16:40:58;1.95;;;0.40;;
23590;SDS011;11973;52.098;7.582;2023-09-19T16:43:24;1.60;;;0.57;;
23590;SDS011;11973;52.098;7.582;2023-09-19T16:45:52;2.35;;;0.57;;
23590;SDS011;11973;52.098;7.582;2023-09-19T16:48:25;0.85;;;0.43;;
23590;SDS011;11973;52.098;7.582;2023-09-19T16:50:52;0.65;;;0.55;;
23590;SDS011;11973;52.098;7.582;2023-09-19T16:53:19;1.35;;;0.40;;
23590;SDS011;11973;52.098;7.582;2023-09-19T16:55:46;0.60;;;0.60;;
23590;SDS011;11973;52.098;7.582;2023-09-19T16:58:13;0.70;;;0.70;;
23590;SDS011;11973;52.098;7.582;2023-09-19T17:00:39;0.57;;;0.50;;
23590;SDS011;11973;52.098;7.582;2023-09-19T17:03:05;2.13;;;0.40;;
23590;SDS011;11973;52.098;7.582;2023-09-19T17:05:32;2.17;;;0.50;;
23590;SDS011;11973;52.098;7.582;2023-09-19T17:07:58;1.17;;;0.50;;
23590;SDS011;11973;52.098;7.582;2023-09-19T17:10:24;1.85;;;0.47;;
23590;SDS011;11973;52.098;7.582;2023-09-19T17:12:52;0.50;;;0.50;;
23590;SDS011;11973;52.098;7.582;2023-09-19T17:15:20;1.75;;;0.70;;
23590;SDS011;11973;52.098;7.582;2023-09-19T17:17:46;0.77;;;0.57;;
23590;SDS011;11973;52.098;7.582;2023-09-19T17:20:12;2.42;;;0.60;;
23590;SDS011;11973;52.098;7.582;2023-09-19T17:22:38;1.95;;;0.80;;
23590;SDS011;11973;52.098;7.582;2023-09-19T17:25:04;1.42;;;0.80;;
23590;SDS011;11973;52.098;7.582;2023-09-19T17:27:30;0.80;;;0.80;;
23590;SDS011;11973;52.098;7.582;2023-09-19T17:29:56;1.65;;;0.70;;
23590;SDS011;11973;52.098;7.582;2023-09-19T17:32:22;0.98;;;0.80;;
23590;SDS011;11973;52.098;7.582;2023-09-19T17:34:47;0.40;;;0.40;;
23590;SDS011;11973;52.098;7.582;2023-09-19T17:37:14;2.30;;;0.68;;
23590;SDS011;11973;52.098;7.582;2023-09-19T17:39:40;1.52;;;0.50;;
23590;SDS011;11973;52.098;7.582;2023-09-19T17:42:06;1.40;;;0.50;;
23590;SDS011;11973;52.098;7.582;2023-09-19T17:44:33;0.50;;;0.50;;
23590;SDS011;11973;52.098;7.582;2023-09-19T17:47:00;0.65;;;0.40;;
23590;SDS011;11973;52.098;7.582;2023-09-19T17:49:26;0.60;;;0.60;;
23590;SDS011;11973;52.098;7.582;2023-09-19T17:51:52;1.00;;;0.50;;
23590;SDS011;11973;52.098;7.582;2023-09-19T17:54:18;0.70;;;0.68;;
23590;SDS011;11973;52.098;7.582;2023-09-19T17:56:44;1.23;;;0.60;;
23590;SDS011;11973;52.098;7.582;2023-09-19T17:59:09;2.47;;;0.63;;
23590;SDS011;11973;52.098;7.582;2023-09-19T18:01:35;2.40;;;0.70;;
23590;SDS011;11973;52.098;7.582;2023-09-19T18:04:02;1.15;;;0.60;;
23590;SDS011;11973;52.098;7.582;2023-09-19T18:06:29;1.30;;;0.57;;
23590;SDS011;11973;52.098;7.582;2023-09-19T18:08:58;1.65;;;0.60;;
23590;SDS011;11973;52.098;7.582;2023-09-19T18:11:25;0.63;;;0.63;;
23590;SDS011;11973;52.098;7.582;2023-09-19T18:13:52;1.10;;;0.75;;
23590;SDS011;11973;52.098;7.582;2023-09-19T18:16:19;2.10;;;0.70;;
23590;SDS011;11973;52.098;7.582;2023-09-19T18:18:50;1.02;;;0.60;;
23590;SDS011;11973;52.098;7.582;2023-09-19T18:21:18;1.33;;;0.60;;
23590;SDS011;11973;52.098;7.582;2023-09-19T18:23:54;0.80;;;0.65;;
23590;SDS011;11973;52.098;7.582;2023-09-19T18:26:22;1.00;;;0.82;;
23590;SDS011;11973;52.098;7.582;2023-09-19T18:28:48;1.25;;;0.70;;
23590;SDS011;11973;52.098;7.582;2023-09-19T18:31:15;0.82;;;0.63;;
23590;SDS011;11973;52.098;7.582;2023-09-19T18:33:43;3.25;;;0.70;;
23590;SDS011;11973;52.098;7.582;2023-09-19T18:36:09;1.27;;;0.50;;
23590;SDS011;11973;52.098;7.582;2023-09-19T18:38:38;0.70;;;0.70;;
23590;SDS011;11973;52.098;7.582;2023-09-19T18:41:08;1.25;;;0.52;;
23590;SDS011;11973;52.098;7.582;2023-09-19T18:43:35;0.73;;;0.70;;
23590;SDS011;11973;52.098;7.582;2023-09-19T18:46:02;0.80;;;0.80;;
23590;SDS011;11973;52.098;7.582;2023-09-19T18:48:30;1.25;;;0.70;;
23590;SDS011;11973;52.098;7.582;2023-09-19T18:50:57;1.00;;;0.85;;
23590;SDS011;11973;52.098;7.582;2023-09-19T18:53:28;0.70;;;0.70;;
23590;SDS011;11973;52.098;7.582;2023-09-19T18:56:08;3.60;;;1.17;;
23590;SDS011;11973;52.098;7.582;2023-09-19T18:58:44;1.48;;;0.60;;
23590;SDS011;11973;52.098;7.582;2023-09-19T19:01:14;1.33;;;0.85;;
23590;SDS011;11973;52.098;7.582;2023-09-19T19:03:41;0.88;;;0.85;;
23590;SDS011;11973;52.098;7.582;2023-09-19T19:06:10;0.60;;;0.60;;
23590;SDS011;11973;52.098;7.582;2023-09-19T19:08:40;2.33;;;0.80;;
23590;SDS011;11973;52.098;7.582;2023-09-19T19:11:08;0.70;;;0.70;;
23590;SDS011;11973;52.098;7.582;2023-09-19T19:13:36;3.13;;;0.90;;
23590;SDS011;11973;52.098;7.582;2023-09-19T19:16:02;1.92;;;0.80;;
23590;SDS011;11973;52.098;7.582;2023-09-19T19:18:28;0.88;;;0.88;;
23590;SDS011;11973;52.098;7.582;2023-09-19T19:21:01;2.70;;;0.82;;
23590;SDS011;11973;52.098;7.582;2023-09-19T19:23:32;2.45;;;0.90;;
23590;SDS011;11973;52.098;7.582;2023-09-19T19:26:01;0.77;;;0.77;;
23590;SDS011;11973;52.098;7.582;2023-09-19T19:28:29;2.33;;;1.00;;
23590;SDS011;11973;52.098;7.582;2023-09-19T19:30:56;0.90;;;0.85;;
23590;SDS011;11973;52.098;7.582;2023-09-19T19:33:22;1.67;;;0.65;;
23590;SDS011;11973;52.098;7.582;2023-09-19T19:35:50;1.65;;;0.80;;
23590;SDS011;11973;52.098;7.582;2023-09-19T19:38:16;1.00;;;1.00;;
23590;SDS011;11973;52.098;7.582;2023-09-19T19:40:43;0.85;;;0.77;;
23590;SDS011;11973;52.098;7.582;2023-09-19T19:43:09;0.70;;;0.70;;
23590;SDS011;11973;52.098;7.582;2023-09-19T19:45:35;1.10;;;1.00;;
23590;SDS011;11973;52.098;7.582;2023-09-19T19:48:01;1.65;;;0.90;;
23590;SDS011;11973;52.098;7.582;2023-09-19T19:50:30;2.33;;;0.98;;